createdAt,value
2023-01-30T00:00:54.940Z,42.23
2023-01-30T00:03:22.323Z,45.50
2023-01-30T00:05:48.937Z,50.07
2023-01-30T00:08:16.040Z,43.60
2023-01-30T00:10:42.784Z,42.80
2023-01-30T00:13:09.741Z,42.57
2023-01-30T00:15:36.535Z,45.20
2023-01-30T00:18:03.452Z,37.73
2023-01-30T00:20:30.304Z,49.63
2023-01-30T00:23:00.992Z,42.83
2023-01-30T00:25:28.555Z,48.97
2023-01-30T00:27:55.208Z,41.93
2023-01-30T00:30:21.667Z,45.80
2023-01-30T00:32:48.220Z,48.57
2023-01-30T00:35:14.653Z,50.47
2023-01-30T00:37:40.988Z,46.60
2023-01-30T00:40:07.818Z,44.90
2023-01-30T00:42:52.956Z,46.77
2023-01-30T00:45:38.213Z,43.33
2023-01-30T00:48:04.753Z,49.03
2023-01-30T00:50:42.376Z,48.80
2023-01-30T00:53:13.685Z,44.43
2023-01-30T00:55:40.791Z,47.13
2023-01-30T00:58:07.410Z,46.63
2023-01-30T01:00:33.867Z,40.97
2023-01-30T01:03:00.666Z,44.23
2023-01-30T01:05:27.921Z,43.37
2023-01-30T01:07:55.038Z,41.73
2023-01-30T01:10:21.895Z,49.80
2023-01-30T01:12:50.420Z,49.60
2023-01-30T01:15:17.103Z,39.97
2023-01-30T01:17:43.996Z,46.77
2023-01-30T01:20:10.827Z,43.57
2023-01-30T01:22:37.219Z,47.87
2023-01-30T01:25:04.425Z,48.20
2023-01-30T01:27:30.974Z,51.17
2023-01-30T01:29:57.299Z,55.77
2023-01-30T01:32:23.799Z,51.63
2023-01-30T01:34:50.132Z,49.10
2023-01-30T01:37:16.475Z,52.90
2023-01-30T01:40:01.654Z,49.63
2023-01-30T01:42:31.906Z,50.67
2023-01-30T01:45:13.455Z,49.60
2023-01-30T01:47:49.495Z,55.20
2023-01-30T01:50:21.083Z,53.23
2023-01-30T01:52:52.469Z,48.50
2023-01-30T01:55:21.237Z,49.10
2023-01-30T01:57:53.588Z,44.70
2023-01-30T02:00:21.445Z,52.63
2023-01-30T02:03:01.344Z,47.80
2023-01-30T02:05:33.973Z,50.07
2023-01-30T02:08:06.156Z,51.73
2023-01-30T02:10:54.436Z,54.70
2023-01-30T02:13:21.051Z,60.27
2023-01-30T02:15:47.538Z,49.73
2023-01-30T02:18:15.208Z,50.13
2023-01-30T02:21:27.382Z,48.47
2023-01-30T02:24:32.203Z,46.10
2023-01-30T02:27:07.746Z,54.27
2023-01-30T02:29:53.050Z,53.20
2023-01-30T02:32:38.313Z,47.93
2023-01-30T02:35:17.727Z,46.87
2023-01-30T02:37:44.183Z,49.63
2023-01-30T02:40:25.860Z,50.13
2023-01-30T02:43:18.752Z,58.10
2023-01-30T02:45:54.515Z,51.60
2023-01-30T02:48:30.845Z,49.70
2023-01-30T02:51:01.128Z,54.37
2023-01-30T02:53:32.846Z,49.27
2023-01-30T02:55:59.461Z,49.27
2023-01-30T02:58:31.155Z,58.43
2023-01-30T03:01:26.917Z,53.97
2023-01-30T03:04:11.242Z,57.53
2023-01-30T03:07:32.773Z,51.43
2023-01-30T03:10:37.751Z,55.07
2023-01-30T03:13:19.455Z,57.67
2023-01-30T03:16:02.876Z,50.40
2023-01-30T03:18:29.638Z,57.00
2023-01-30T03:20:56.868Z,56.57
2023-01-30T03:23:23.212Z,54.23
2023-01-30T03:25:49.913Z,52.07
2023-01-30T03:28:19.450Z,51.27
2023-01-30T03:30:45.831Z,58.00
2023-01-30T03:33:12.203Z,52.63
2023-01-30T03:35:39.044Z,54.60
2023-01-30T03:38:05.419Z,58.67
2023-01-30T03:40:32.119Z,54.77
2023-01-30T03:42:58.653Z,63.30
2023-01-30T03:45:25.016Z,48.03
2023-01-30T03:47:51.879Z,54.43
2023-01-30T03:50:18.212Z,48.10
2023-01-30T03:52:44.525Z,52.37
2023-01-30T03:55:11.257Z,53.23
2023-01-30T03:57:37.823Z,57.30
2023-01-30T04:00:04.763Z,52.43
2023-01-30T04:02:31.149Z,52.07
2023-01-30T04:04:57.491Z,51.40
2023-01-30T04:07:24.135Z,57.60
2023-01-30T04:09:50.509Z,53.03
2023-01-30T04:12:16.847Z,51.53
2023-01-30T04:14:43.169Z,57.23
2023-01-30T04:17:09.479Z,54.00
2023-01-30T04:19:35.801Z,47.17
2023-01-30T04:22:02.137Z,52.90
2023-01-30T04:24:28.500Z,56.20
2023-01-30T04:26:54.881Z,46.70
2023-01-30T04:29:21.192Z,45.80
2023-01-30T04:31:47.498Z,45.40
2023-01-30T04:34:14.001Z,53.00
2023-01-30T04:36:40.347Z,56.53
2023-01-30T04:39:06.701Z,54.67
2023-01-30T04:41:33.032Z,46.93
2023-01-30T04:43:59.343Z,49.93
2023-01-30T04:46:25.695Z,45.53
2023-01-30T04:48:52.158Z,40.67
2023-01-30T04:51:18.476Z,45.63
2023-01-30T04:53:44.865Z,47.57
2023-01-30T04:56:11.424Z,52.27
2023-01-30T04:58:37.767Z,46.47
2023-01-30T05:01:22.809Z,50.80
2023-01-30T05:03:51.046Z,51.07
2023-01-30T05:06:17.408Z,52.77
2023-01-30T05:08:46.590Z,45.73
2023-01-30T05:11:13.163Z,52.77
2023-01-30T05:13:39.495Z,56.23
2023-01-30T05:16:06.327Z,52.50
2023-01-30T05:18:33.925Z,49.43
2023-01-30T05:21:08.505Z,51.53
2023-01-30T05:23:35.370Z,50.30
2023-01-30T05:26:02.275Z,51.83
2023-01-30T05:28:29.303Z,48.07
2023-01-30T05:31:02.182Z,53.37
2023-01-30T05:33:28.936Z,50.63
2023-01-30T05:35:55.294Z,49.57
2023-01-30T05:38:23.005Z,42.40
2023-01-30T05:40:59.338Z,55.40
2023-01-30T05:43:25.954Z,48.30
2023-01-30T05:45:56.355Z,51.97
2023-01-30T05:48:23.767Z,47.70
2023-01-30T05:50:51.860Z,41.17
2023-01-30T05:53:22.021Z,42.53
2023-01-30T05:56:15.243Z,50.07
2023-01-30T05:58:41.957Z,49.00
2023-01-30T06:01:11.764Z,50.60
2023-01-30T06:03:38.955Z,45.57
2023-01-30T06:06:06.115Z,49.03
2023-01-30T06:08:33.191Z,52.93
2023-01-30T06:11:13.865Z,56.43
2023-01-30T06:13:40.328Z,57.50
2023-01-30T06:16:08.293Z,58.80
2023-01-30T06:18:35.789Z,57.17
2023-01-30T06:21:02.175Z,60.20
2023-01-30T06:23:28.591Z,69.30
2023-01-30T06:25:55.631Z,62.67
2023-01-30T06:28:23.092Z,58.50
2023-01-30T06:30:49.881Z,59.27
2023-01-30T06:33:16.561Z,54.77
2023-01-30T06:35:44.077Z,59.57
2023-01-30T06:38:11.621Z,62.43
2023-01-30T06:40:38.499Z,58.97
2023-01-30T06:43:05.076Z,59.10
2023-01-30T06:45:31.517Z,62.73
2023-01-30T06:47:57.966Z,63.67
2023-01-30T06:50:26.658Z,69.87
2023-01-30T06:52:54.131Z,56.53
2023-01-30T06:55:22.771Z,54.87
2023-01-30T06:57:49.788Z,57.23
2023-01-30T07:00:18.913Z,54.60
2023-01-30T07:02:46.534Z,55.47
2023-01-30T07:05:12.915Z,63.17
2023-01-30T07:07:39.554Z,52.50
2023-01-30T07:10:09.207Z,53.30
2023-01-30T07:12:36.221Z,57.10
2023-01-30T07:15:03.844Z,60.60
2023-01-30T07:17:30.364Z,51.90
2023-01-30T07:19:56.897Z,48.03
2023-01-30T07:22:23.391Z,51.10
2023-01-30T07:24:49.785Z,53.30
2023-01-30T07:27:16.928Z,54.03
2023-01-30T07:29:43.359Z,56.27
2023-01-30T07:32:15.610Z,54.73
2023-01-30T07:34:42.149Z,46.77
2023-01-30T07:37:08.564Z,55.37
2023-01-30T07:39:35.313Z,49.23
2023-01-30T07:42:02.531Z,53.23
2023-01-30T07:44:28.881Z,55.83
2023-01-30T07:46:55.290Z,50.20
2023-01-30T07:49:21.644Z,54.47
2023-01-30T07:51:48.059Z,51.10
2023-01-30T07:54:14.456Z,53.63
2023-01-30T07:56:40.809Z,46.87
2023-01-30T07:59:07.204Z,61.53
2023-01-30T08:01:33.527Z,59.27
2023-01-30T08:03:59.848Z,55.70
2023-01-30T08:06:26.239Z,60.30
2023-01-30T08:08:52.582Z,58.27
2023-01-30T08:11:18.913Z,68.80
2023-01-30T08:13:45.331Z,57.73
2023-01-30T08:16:11.741Z,54.97
2023-01-30T08:18:38.260Z,50.50
2023-01-30T08:21:07.143Z,53.90
2023-01-30T08:23:34.549Z,53.00
2023-01-30T08:26:03.190Z,47.30
2023-01-30T08:28:30.868Z,53.40
2023-01-30T08:30:57.661Z,52.77
2023-01-30T08:33:24.964Z,47.70
2023-01-30T08:35:51.613Z,42.23
2023-01-30T08:38:17.968Z,49.37
2023-01-30T08:40:44.364Z,42.60
2023-01-30T08:43:10.722Z,39.97
2023-01-30T08:45:37.120Z,41.57
2023-01-30T08:48:05.741Z,38.40
2023-01-30T08:50:33.309Z,41.60
2023-01-30T08:53:07.632Z,39.37
2023-01-30T08:55:34.027Z,41.83
2023-01-30T08:58:00.404Z,40.13
2023-01-30T09:00:28.129Z,40.40
2023-01-30T09:02:56.056Z,46.03
2023-01-30T09:05:22.508Z,43.77
2023-01-30T09:07:50.295Z,39.37
2023-01-30T09:10:17.716Z,40.93
2023-01-30T09:12:44.588Z,34.57
2023-01-30T09:15:11.388Z,41.00
2023-01-30T09:17:38.450Z,36.20
2023-01-30T09:20:09.711Z,41.33
2023-01-30T09:22:36.772Z,41.97
2023-01-30T09:25:03.608Z,35.90
2023-01-30T09:27:29.941Z,39.13
2023-01-30T09:29:56.344Z,38.67
2023-01-30T09:32:23.556Z,34.30
2023-01-30T09:34:49.915Z,39.23
2023-01-30T09:37:16.263Z,33.00
2023-01-30T09:39:42.599Z,33.93
2023-01-30T09:42:32.794Z,38.33
2023-01-30T09:45:25.239Z,35.50
2023-01-30T09:48:33.780Z,39.33
2023-01-30T09:51:26.865Z,38.73
2023-01-30T09:54:08.435Z,35.07
2023-01-30T09:56:34.972Z,33.87
2023-01-30T09:59:03.448Z,36.30
2023-01-30T10:01:40.675Z,36.37
2023-01-30T10:04:29.482Z,33.00
2023-01-30T10:06:59.688Z,34.90
2023-01-30T10:09:38.443Z,33.20
2023-01-30T10:12:29.783Z,32.83
2023-01-30T10:15:28.893Z,35.33
2023-01-30T10:18:07.913Z,35.50
2023-01-30T10:20:39.526Z,45.50
2023-01-30T10:23:18.926Z,41.67
2023-01-30T10:25:49.395Z,44.97
2023-01-30T10:28:21.469Z,40.57
2023-01-30T10:30:49.350Z,40.20
2023-01-30T10:33:22.593Z,41.60
2023-01-30T10:36:10.476Z,36.17
2023-01-30T10:38:46.332Z,42.70
2023-01-30T10:41:34.732Z,47.33
2023-01-30T10:44:13.453Z,48.47
2023-01-30T10:47:12.382Z,47.00
2023-01-30T10:49:52.583Z,45.50
2023-01-30T10:52:32.732Z,50.20
2023-01-30T10:55:31.484Z,45.57
2023-01-30T10:58:23.679Z,42.00
2023-01-30T11:01:01.170Z,41.03
2023-01-30T11:03:49.242Z,43.27
2023-01-30T11:06:19.415Z,48.03
2023-01-30T11:08:46.101Z,42.27
2023-01-30T11:11:27.074Z,46.40
2023-01-30T11:14:08.150Z,50.17
2023-01-30T11:16:43.498Z,45.30
2023-01-30T11:19:20.852Z,40.77
2023-01-30T11:21:54.423Z,45.93
2023-01-30T11:24:29.196Z,48.63
2023-01-30T11:27:08.925Z,48.67
2023-01-30T11:29:39.220Z,41.70
2023-01-30T11:32:13.013Z,43.87
2023-01-30T11:34:43.033Z,41.73
2023-01-30T11:37:27.428Z,43.43
2023-01-30T11:39:54.313Z,39.87
2023-01-30T11:42:29.483Z,45.63
2023-01-30T11:45:15.538Z,39.93
2023-01-30T11:48:05.001Z,41.67
2023-01-30T11:50:44.546Z,44.77
2023-01-30T11:53:23.792Z,45.27
2023-01-30T11:56:02.869Z,42.07
2023-01-30T11:58:33.944Z,36.40
2023-01-30T12:01:02.049Z,41.50
2023-01-30T12:03:29.956Z,39.97
2023-01-30T12:05:58.698Z,45.57
2023-01-30T12:08:41.054Z,38.47
2023-01-30T12:11:28.864Z,39.90
2023-01-30T12:14:04.997Z,50.67
2023-01-30T12:16:44.319Z,47.47
2023-01-30T12:19:33.903Z,51.43
2023-01-30T12:22:18.756Z,40.97
2023-01-30T12:25:01.384Z,41.97
2023-01-30T12:27:55.241Z,47.20
2023-01-30T12:33:06.801Z,40.30
2023-01-30T12:36:01.276Z,41.10
2023-01-30T12:38:58.167Z,46.10
2023-01-30T12:41:55.525Z,41.90
2023-01-30T12:44:42.783Z,40.93
2023-01-30T12:47:41.691Z,45.83
2023-01-30T12:50:21.111Z,44.33
2023-01-30T12:52:59.249Z,40.17
2023-01-30T12:55:51.359Z,41.80
2023-01-30T12:58:46.650Z,40.17
2023-01-30T13:01:40.307Z,39.10
2023-01-30T13:04:24.988Z,41.17
2023-01-30T13:07:22.403Z,37.13
2023-01-30T13:09:58.599Z,41.67
2023-01-30T13:12:42.034Z,39.23
2023-01-30T13:15:31.960Z,36.20
2023-01-30T13:18:15.272Z,48.03
2023-01-30T13:20:52.542Z,42.17
2023-01-30T13:23:36.400Z,44.53
2023-01-30T13:26:10.199Z,39.50
2023-01-30T13:28:48.585Z,41.20
2023-01-30T13:31:21.238Z,41.53
2023-01-30T13:33:50.720Z,42.37
2023-01-30T13:36:22.747Z,40.73
2023-01-30T13:39:03.943Z,43.17
2023-01-30T13:41:35.638Z,37.33
2023-01-30T13:44:13.420Z,33.57
2023-01-30T13:46:40.335Z,38.30
2023-01-30T13:49:15.771Z,38.97
2023-01-30T13:51:47.253Z,40.23
2023-01-30T13:54:23.904Z,40.33
2023-01-30T13:57:23.737Z,39.00
2023-01-30T14:00:18.217Z,39.60
2023-01-30T14:03:03.162Z,41.17
2023-01-30T14:05:51.555Z,38.57
2023-01-30T14:08:22.860Z,40.13
2023-01-30T14:10:50.129Z,37.93
2023-01-30T14:13:17.631Z,42.87
2023-01-30T14:15:58.962Z,39.13
2023-01-30T14:18:33.733Z,39.70
2023-01-30T14:21:13.813Z,39.37
2023-01-30T14:23:53.532Z,39.60
2023-01-30T14:26:48.559Z,35.93
2023-01-30T14:29:42.909Z,34.47
2023-01-30T14:32:13.977Z,37.50
2023-01-30T14:35:09.895Z,44.03
2023-01-30T14:37:39.078Z,39.73
2023-01-30T14:40:20.751Z,38.23
2023-01-30T14:43:12.258Z,43.77
2023-01-30T14:45:47.969Z,37.17
2023-01-30T14:48:32.075Z,33.73
2023-01-30T14:51:36.891Z,40.07
2023-01-30T14:54:10.027Z,39.60
2023-01-30T14:56:54.611Z,40.40
2023-01-30T14:59:26.335Z,42.90
2023-01-30T15:02:11.985Z,38.97
2023-01-30T15:04:56.016Z,46.37
2023-01-30T15:07:27.401Z,38.87
2023-01-30T15:10:32.589Z,42.20
2023-01-30T15:13:21.491Z,40.30
2023-01-30T15:16:19.863Z,39.73
2023-01-30T15:19:14.517Z,43.30
2023-01-30T15:22:02.948Z,36.63
2023-01-30T15:24:47.985Z,36.33
2023-01-30T15:27:31.484Z,40.57
2023-01-30T15:30:20.929Z,41.90
2023-01-30T15:32:47.550Z,39.80
2023-01-30T15:35:17.105Z,39.97
2023-01-30T15:37:46.405Z,44.37
2023-01-30T15:40:16.036Z,39.50
2023-01-30T15:43:00.664Z,41.43
2023-01-30T15:46:11.262Z,46.03
2023-01-30T15:49:16.553Z,38.40
2023-01-30T15:51:43.088Z,40.13
2023-01-30T15:54:14.568Z,37.63
2023-01-30T15:56:41.116Z,47.83
2023-01-30T15:59:08.404Z,40.47
2023-01-30T16:01:34.788Z,40.30
2023-01-30T16:04:04.856Z,37.23
2023-01-30T16:06:34.544Z,39.17
2023-01-30T16:09:19.739Z,39.10
2023-01-30T16:11:46.251Z,46.93
2023-01-30T16:14:15.053Z,40.43
2023-01-30T16:16:47.090Z,41.80
2023-01-30T16:19:21.223Z,41.50
2023-01-30T16:21:48.203Z,40.87
2023-01-30T16:24:24.663Z,38.97
2023-01-30T16:27:00.745Z,42.97
2023-01-30T16:29:30.006Z,41.10
2023-01-30T16:31:57.252Z,43.77
2023-01-30T16:34:38.311Z,55.87
2023-01-30T16:37:07.563Z,43.67
2023-01-30T16:39:36.281Z,40.67
2023-01-30T16:42:19.919Z,46.63
2023-01-30T16:44:46.285Z,43.80
2023-01-30T16:47:25.092Z,44.07
2023-01-30T16:49:53.284Z,42.20
2023-01-30T16:52:26.107Z,47.93
2023-01-30T16:54:55.934Z,50.00
2023-01-30T16:57:36.312Z,44.93
2023-01-30T17:00:21.268Z,48.30
2023-01-30T17:02:53.335Z,56.40
2023-01-30T17:05:22.779Z,52.20
2023-01-30T17:07:50.463Z,48.90
2023-01-30T17:10:41.656Z,54.03
2023-01-30T17:13:30.457Z,57.50
2023-01-30T17:16:25.957Z,51.40
2023-01-30T17:18:55.205Z,58.93
2023-01-30T17:21:23.656Z,52.70
2023-01-30T17:23:55.148Z,55.13
2023-01-30T17:26:21.604Z,47.73
2023-01-30T17:28:48.000Z,51.07
2023-01-30T17:31:15.711Z,45.57
2023-01-30T17:33:42.659Z,40.57
2023-01-30T17:36:25.866Z,54.93
2023-01-30T17:38:52.429Z,55.57
2023-01-30T17:41:21.281Z,49.83
2023-01-30T17:43:49.736Z,43.83
2023-01-30T17:46:17.216Z,47.73
2023-01-30T17:48:44.397Z,39.93
2023-01-30T17:51:13.983Z,47.40
2023-01-30T17:53:41.688Z,51.53
2023-01-30T17:56:17.319Z,48.03
2023-01-30T17:58:43.647Z,43.23
2023-01-30T18:01:11.915Z,45.03
2023-01-30T18:03:38.238Z,44.37
2023-01-30T18:06:04.727Z,46.33
2023-01-30T18:08:31.056Z,46.57
2023-01-30T18:10:57.463Z,57.77
2023-01-30T18:13:23.801Z,43.40
2023-01-30T18:15:52.357Z,43.27
2023-01-30T18:18:19.008Z,43.97
2023-01-30T18:20:46.849Z,41.03
2023-01-30T18:23:13.811Z,49.33
2023-01-30T18:25:40.145Z,36.83
2023-01-30T18:28:09.917Z,46.47
2023-01-30T18:30:36.335Z,41.70
2023-01-30T18:33:02.681Z,47.03
2023-01-30T18:35:29.096Z,44.37
2023-01-30T18:37:59.387Z,40.27
2023-01-30T18:40:28.671Z,43.90
2023-01-30T18:42:54.990Z,43.80
2023-01-30T18:45:21.336Z,36.20
2023-01-30T18:47:47.836Z,37.70
2023-01-30T18:50:14.219Z,43.47
2023-01-30T18:52:40.548Z,36.43
2023-01-30T18:55:07.181Z,42.80
2023-01-30T18:57:33.515Z,37.20
2023-01-30T18:59:59.848Z,45.13
2023-01-30T19:02:26.203Z,37.47
2023-01-30T19:04:52.582Z,40.60
2023-01-30T19:07:18.998Z,39.37
2023-01-30T19:09:45.402Z,34.83
2023-01-30T19:12:30.604Z,35.73
2023-01-30T19:14:56.943Z,37.10
2023-01-30T19:17:23.319Z,33.17
2023-01-30T19:19:49.860Z,42.97
2023-01-30T19:22:17.970Z,35.27
2023-01-30T19:24:44.560Z,38.20
2023-01-30T19:27:13.692Z,38.53
2023-01-30T19:29:41.393Z,36.70
2023-01-30T19:32:07.719Z,34.80
2023-01-30T19:34:34.079Z,33.53
2023-01-30T19:37:01.102Z,33.93
2023-01-30T19:39:27.438Z,35.83
2023-01-30T19:41:53.780Z,29.90
2023-01-30T19:44:20.162Z,29.23
2023-01-30T19:46:46.643Z,32.37
2023-01-30T19:49:13.036Z,33.00
2023-01-30T19:51:40.517Z,38.20
2023-01-30T19:54:09.439Z,34.57
2023-01-30T19:56:37.484Z,35.10
2023-01-30T19:59:04.490Z,32.03
2023-01-30T20:01:35.257Z,33.77
2023-01-30T20:04:02.389Z,33.37
2023-01-30T20:06:31.700Z,25.73
2023-01-30T20:09:00.891Z,40.27
2023-01-30T20:11:27.795Z,25.80
2023-01-30T20:13:54.763Z,21.57
2023-01-30T20:16:25.274Z,25.90
2023-01-30T20:18:59.739Z,23.37
2023-01-30T20:21:27.225Z,31.80
2023-01-30T20:23:54.848Z,24.30
2023-01-30T20:26:24.421Z,29.63
2023-01-30T20:28:51.207Z,25.10
2023-01-30T20:31:20.567Z,27.23
2023-01-30T20:33:47.484Z,26.27
2023-01-30T20:36:17.568Z,28.97
2023-01-30T20:38:45.366Z,28.40
2023-01-30T20:41:14.809Z,24.47
2023-01-30T20:43:46.569Z,29.57
2023-01-30T20:46:18.589Z,25.00
2023-01-30T20:48:45.517Z,26.07
2023-01-30T20:51:18.037Z,23.50
2023-01-30T20:53:50.135Z,24.80
2023-01-30T20:56:16.757Z,22.97
2023-01-30T20:58:43.271Z,23.40
2023-01-30T21:01:12.386Z,25.20
2023-01-30T21:03:39.563Z,20.03
2023-01-30T21:06:06.005Z,22.47
2023-01-30T21:08:32.551Z,24.17
2023-01-30T21:11:14.641Z,23.70
2023-01-30T21:13:41.687Z,32.60
2023-01-30T21:16:20.941Z,25.73
2023-01-30T21:18:49.908Z,31.00
2023-01-30T21:21:19.936Z,43.73
2023-01-30T21:23:47.505Z,22.00
2023-01-30T21:26:15.698Z,28.63
2023-01-30T21:28:42.898Z,25.07
2023-01-30T21:31:12.903Z,24.83
2023-01-30T21:33:40.211Z,26.33
2023-01-30T21:36:07.335Z,21.13
2023-01-30T21:38:52.916Z,16.40
2023-01-30T21:41:40.322Z,21.70
2023-01-30T21:44:06.914Z,23.93
2023-01-30T21:46:51.755Z,18.50
2023-01-30T21:49:19.082Z,20.10
2023-01-30T21:51:47.434Z,21.30
2023-01-30T21:54:15.429Z,22.60
2023-01-30T21:56:42.288Z,18.10
2023-01-30T21:59:08.671Z,22.97
2023-01-30T22:01:36.669Z,20.03
2023-01-30T22:04:05.499Z,22.93
2023-01-30T22:06:32.807Z,22.00
2023-01-30T22:09:01.201Z,15.87
2023-01-30T22:11:28.692Z,17.87
2023-01-30T22:13:55.840Z,17.33
2023-01-30T22:16:27.402Z,18.97
2023-01-30T22:18:56.522Z,22.10
2023-01-30T22:21:24.991Z,17.10
2023-01-30T22:23:52.939Z,20.37
2023-01-30T22:26:21.584Z,19.80
2023-01-30T22:28:48.045Z,17.93
2023-01-30T22:31:17.580Z,18.10
2023-01-30T22:33:45.916Z,17.63
2023-01-30T22:36:13.073Z,14.23
2023-01-30T22:38:47.599Z,16.00
2023-01-30T22:41:18.256Z,17.93
2023-01-30T22:43:58.489Z,19.67
2023-01-30T22:46:33.482Z,17.33
2023-01-30T22:49:01.683Z,18.03
2023-01-30T22:51:30.469Z,22.07
2023-01-30T22:54:02.176Z,18.13
2023-01-30T22:56:31.485Z,17.73
2023-01-30T22:58:57.826Z,18.13
2023-01-30T23:01:26.595Z,16.43
2023-01-30T23:03:57.319Z,17.43
2023-01-30T23:06:24.444Z,16.47
2023-01-30T23:08:52.515Z,13.80
2023-01-30T23:11:40.563Z,17.73
2023-01-30T23:14:13.367Z,20.10
2023-01-30T23:16:43.349Z,14.83
2023-01-30T23:19:11.647Z,13.03
2023-01-30T23:21:43.503Z,16.17
2023-01-30T23:24:15.764Z,16.40
2023-01-30T23:26:46.399Z,19.33
2023-01-30T23:29:15.041Z,18.73
2023-01-30T23:31:42.824Z,20.77
2023-01-30T23:34:18.280Z,16.93
2023-01-30T23:36:45.782Z,18.83
2023-01-30T23:39:13.405Z,23.03
2023-01-30T23:41:41.777Z,18.90
2023-01-30T23:44:08.247Z,18.37
2023-01-30T23:46:37.688Z,15.77
2023-01-30T23:49:09.536Z,18.93
2023-01-30T23:51:38.697Z,18.43
2023-01-30T23:54:05.747Z,16.20
2023-01-30T23:56:36.201Z,16.00
2023-01-30T23:59:03.359Z,15.73
